Time;durP1;ratioP1;P1;durP2;ratioP2;P2;SDS_P1;SDS_P2;PMS_P1;PMS_P2;Temp;Humidity;BMP_temperature;BMP_pressure;BME280_temperature;BME280_humidity;BME280_pressure;Samples;Min_cycle;Max_cycle;Signal;HPM_P1;HPM_P2
2022/08/09 17:15:51;;;;;;;4.40;2.90;;;;;;;26.67;42.61;101404.09;85639;1302;599747;-43
2022/08/09 17:17:59;;;;;;;3.20;2.40;;;;;;;26.83;42.79;101407.23;87836;1279;145377;-43
2022/08/09 17:26:56;;;;;;;5.10;2.70;;;;;;;24.12;44.10;101481.77;86306;1302;600521;-58
2022/08/09 17:29:07;;;;;;;3.40;2.60;;;;;;;23.14;45.49;101481.91;88605;1273;79202;-59
2022/08/09 17:31:21;;;;;;;7.30;2.80;;;;;;;22.45;46.60;101486.91;89145;1263;81542;-59
2022/08/09 17:33:34;;;;;;;3.40;2.50;;;;;;;21.83;47.78;101486.39;89116;1263;96627;-59
2022/08/09 17:35:47;;;;;;;5.70;2.60;;;;;;;21.34;48.70;101481.14;89113;1266;89037;-55
2022/08/09 17:38:05;;;;;;;4.30;2.70;;;;;;;20.92;49.60;101486.59;89050;1264;94292;-57
2022/08/09 17:40:59;;;;;;;4.40;3.20;;;;;;;20.50;50.67;101487.98;88764;1263;483354;-58
2022/08/09 17:43:08;;;;;;;;;;;;;;;20.06;51.83;101493.07;89328;1262;82102;-58
2022/08/09 17:45:18;;;;;;;4.50;2.90;;;;;;;19.72;52.82;101494.51;89308;1262;95771;-58
2022/08/09 17:47:32;;;;;;;4.90;3.20;;;;;;;19.50;53.65;101495.96;89344;1262;86182;-57
2022/08/09 17:49:43;;;;;;;5.00;3.60;;;;;;;19.31;54.26;101493.09;89245;1262;93279;-56
2022/08/09 17:51:54;;;;;;;4.70;4.00;;;;;;;19.17;54.87;101495.54;89270;1263;80561;-58
2022/08/09 17:54:18;;;;;;;7.10;4.50;;;;;;;19.02;55.30;101491.87;89228;1262;81633;-60
2022/08/09 17:56:37;;;;;;;4.80;3.70;;;;;;;18.87;55.80;101492.35;89019;1263;96643;-59
2022/08/09 17:58:52;;;;;;;6.40;4.60;;;;;;;18.73;56.39;101490.10;89230;1262;88639;-59
2022/08/09 18:01:07;;;;;;;4.80;3.40;;;;;;;18.59;56.85;101493.52;89270;1263;92760;-59
2022/08/09 18:03:17;;;;;;;7.60;3.60;;;;;;;18.44;57.23;101496.01;89298;1263;80700;-57
2022/08/09 18:05:29;;;;;;;7.60;3.20;;;;;;;18.31;57.71;101496.72;89308;1261;83206;-57
2022/08/09 18:07:49;;;;;;;4.40;3.30;;;;;;;18.23;58.10;101498.91;89328;1262;97523;-58
2022/08/09 18:10:16;;;;;;;4.90;2.90;;;;;;;18.17;58.40;101501.05;89269;1262;86534;-59
2022/08/09 18:13:08;;;;;;;5.10;2.60;;;;;;;18.10;58.78;101501.25;89308;1263;94249;-59
2022/08/09 18:16:08;;;;;;;5.90;3.10;;;;;;;17.99;59.37;101504.48;89429;1262;79588;-58
2022/08/09 18:18:30;;;;;;;6.70;3.40;;;;;;;17.88;59.72;101510.71;89471;1260;83062;-59
2022/08/09 18:20:51;;;;;;;5.10;3.50;;;;;;;17.82;60.13;101511.42;89462;1260;97889;-57
2022/08/09 18:23:17;;;;;;;7.10;4.60;;;;;;;17.74;60.40;101511.16;89461;1262;87526;-58
2022/08/09 18:25:36;;;;;;;7.80;4.20;;;;;;;17.66;60.70;101513.34;89437;1262;92134;-57
2022/08/09 18:28:15;;;;;;;6.00;3.40;;;;;;;17.59;61.02;101513.30;89183;1262;79172;-56
2022/08/09 18:30:31;;;;;;;4.50;3.60;;;;;;;17.51;61.24;101516.73;89419;1263;81860;-57
2022/08/09 18:32:49;;;;;;;4.80;3.20;;;;;;;17.45;61.47;101514.28;89398;1262;96550;-57
2022/08/09 18:35:02;;;;;;;5.70;3.10;;;;;;;17.37;61.72;101518.38;89488;1260;87645;-57
2022/08/09 18:37:15;;;;;;;4.70;3.20;;;;;;;17.32;61.84;101515.59;89495;1253;93579;-58
2022/08/09 18:39:31;;;;;;;7.70;3.80;;;;;;;17.28;62.29;101521.72;89515;1260;79267;-58
2022/08/09 18:41:44;;;;;;;6.40;3.50;;;;;;;17.25;62.36;101522.80;89481;1260;82839;-56
2022/08/09 18:44:00;;;;;;;4.70;3.70;;;;;;;17.23;62.55;101523.59;89461;1260;97490;-57
2022/08/09 18:46:14;;;;;;;5.20;4.10;;;;;;;17.18;62.78;101522.57;89502;1260;88023;-57
2022/08/09 18:48:31;;;;;;;8.20;4.60;;;;;;;17.11;62.97;101523.93;89517;1260;94416;-56
2022/08/09 18:50:45;;;;;;;8.30;4.00;;;;;;;17.05;63.16;101527.39;89492;1260;80618;-57
2022/08/09 18:53:03;;;;;;;11.50;4.30;;;;;;;16.98;63.41;101526.73;89499;1260;81428;-58
2022/08/09 18:55:15;;;;;;;7.70;4.10;;;;;;;16.91;63.58;101525.33;89470;1260;96558;-57
2022/08/09 18:57:30;;;;;;;4.60;3.50;;;;;;;16.87;63.74;101522.59;89529;1260;87352;-56
2022/08/09 18:59:45;;;;;;;5.20;3.40;;;;;;;16.84;64.03;101523.45;89486;1260;94012;-56
2022/08/09 19:01:55;;;;;;;7.30;3.80;;;;;;;16.79;64.48;101523.71;89472;1260;81803;-56
2022/08/09 19:04:07;;;;;;;7.80;4.10;;;;;;;16.79;64.79;101522.20;89494;1260;82731;-57
2022/08/09 19:06:19;;;;;;;7.60;4.20;;;;;;;16.78;65.03;101525.43;89537;1260;96182;-56
2022/08/09 19:08:33;;;;;;;8.10;4.90;;;;;;;16.79;65.14;101524.09;89532;1260;88467;-58
2022/08/09 19:10:46;;;;;;;;;;;;;;;16.81;65.24;101532.37;89511;1260;94653;-59
2022/08/09 19:13:08;;;;;;;11.50;5.90;;;;;;;16.79;65.41;101532.48;89376;1260;79552;-58
2022/08/09 19:15:30;;;;;;;11.30;5.20;;;;;;;16.79;65.48;101539.16;89500;1260;81561;-57
2022/08/09 19:17:45;;;;;;;7.10;5.20;;;;;;;16.79;65.58;101540.66;89511;1260;96647;-57
2022/08/09 19:20:02;;;;;;;9.70;4.70;;;;;;;16.80;65.77;101538.36;89520;1259;88029;-57
2022/08/09 19:22:21;;;;;;;9.70;4.30;;;;;;;16.82;65.83;101538.34;89667;1259;92457;-56
2022/08/09 19:24:36;;;;;;;9.00;3.70;;;;;;;16.88;65.92;101537.53;89542;1260;82303;-56
2022/08/09 19:26:48;;;;;;;12.40;4.40;;;;;;;16.92;66.13;101537.89;89505;1254;82934;-57
2022/08/09 19:29:02;;;;;;;14.90;8.20;;;;;;;16.96;66.31;101541.14;89491;1260;97130;-56
2022/08/09 19:31:19;;;;;;;13.20;6.50;;;;;;;16.97;66.53;101542.98;89378;1260;88249;-57
2022/08/09 19:33:34;;;;;;;12.70;8.20;;;;;;;16.98;66.64;101542.45;89458;1260;93649;-57
2022/08/09 19:35:51;;;;;;;14.30;8.00;;;;;;;16.99;66.76;101541.98;89436;1260;81270;-59
2022/08/09 19:38:09;;;;;;;12.90;6.20;;;;;;;17.00;66.77;101539.71;89536;1260;80350;-59
2022/08/09 19:40:22;;;;;;;7.80;5.40;;;;;;;17.03;66.99;101535.84;89481;1260;97001;-57
2022/08/09 19:42:51;;;;;;;9.20;4.70;;;;;;;17.04;67.04;101538.56;89672;1259;88192;-58
2022/08/09 19:45:05;;;;;;;11.00;4.40;;;;;;;17.06;67.15;101536.02;89657;1259;94555;-58
2022/08/09 19:47:16;;;;;;;8.30;4.00;;;;;;;17.09;67.25;101541.31;89626;1259;78797;-56
2022/08/09 19:49:33;;;;;;;7.80;4.30;;;;;;;17.10;67.29;101539.97;89672;1260;81652;-56
2022/08/09 19:51:49;;;;;;;8.50;4.40;;;;;;;17.12;67.38;101544.22;89423;1260;97126;-56
2022/08/09 19:54:10;;;;;;;12.90;4.00;;;;;;;17.08;67.64;101543.63;89441;1260;86785;-58
2022/08/09 19:56:24;;;;;;;10.70;4.90;;;;;;;17.00;67.82;101545.86;89491;1260;93258;-58
2022/08/09 19:58:55;;;;;;;9.40;4.70;;;;;;;16.93;68.05;101545.88;89480;1260;81828;-56
2022/08/09 20:01:08;;;;;;;10.60;3.80;;;;;;;16.89;68.16;101545.17;89499;1260;80903;-57
2022/08/09 20:03:18;;;;;;;10.70;3.80;;;;;;;16.89;68.23;101545.52;89495;1260;96286;-58
2022/08/09 20:05:38;;;;;;;9.70;4.60;;;;;;;16.86;68.28;101544.61;89483;1260;88261;-58
2022/08/09 20:07:53;;;;;;;8.60;4.60;;;;;;;16.82;68.45;101541.61;89489;1260;94339;-59
2022/08/09 20:10:08;;;;;;;10.80;4.00;;;;;;;16.81;68.55;101543.20;89528;1260;79955;-59
2022/08/09 20:12:19;;;;;;;12.50;5.70;;;;;;;16.83;68.67;101540.27;89514;1260;82218;-59
2022/08/09 20:14:35;;;;;;;13.10;6.30;;;;;;;16.82;68.56;101541.35;89464;1260;96202;-59
2022/08/09 20:16:49;;;;;;;13.70;6.60;;;;;;;16.79;68.64;101542.40;89470;1260;86467;-58
2022/08/09 20:19:00;;;;;;;11.50;7.40;;;;;;;16.74;68.67;101543.00;89427;1260;93032;-60
2022/08/09 20:21:20;;;;;;;12.00;7.70;;;;;;;16.68;68.60;101539.70;89368;1261;79083;-58
2022/08/09 20:23:38;;;;;;;18.30;7.80;;;;;;;16.62;68.82;101543.89;89487;1260;81757;-58
2022/08/09 20:25:56;;;;;;;13.70;7.20;;;;;;;16.57;68.97;101546.67;89418;1260;97214;-58
2022/08/09 20:28:14;;;;;;;10.80;7.00;;;;;;;16.51;68.92;101547.82;89435;1260;89728;-57
2022/08/09 20:30:29;;;;;;;9.90;6.20;;;;;;;16.43;69.07;101540.05;89489;1260;92769;-57
2022/08/09 20:32:45;;;;;;;12.90;7.60;;;;;;;16.37;69.31;101540.21;89467;1260;80662;-58
2022/08/09 20:34:58;;;;;;;13.50;8.50;;;;;;;16.29;69.60;101539.58;89536;1260;81803;-57
2022/08/09 20:37:18;;;;;;;12.20;7.50;;;;;;;16.24;69.69;101542.27;89516;1260;97453;-58
2022/08/09 20:39:33;;;;;;;13.80;8.20;;;;;;;16.19;69.87;101540.34;89511;1260;88194;-58
2022/08/09 20:41:44;;;;;;;11.80;8.50;;;;;;;16.15;69.90;101546.05;89536;1260;94926;-58
2022/08/09 20:43:59;;;;;;;14.80;8.70;;;;;;;16.11;70.00;101544.34;89499;1260;80629;-59
2022/08/09 20:46:16;;;;;;;16.20;9.10;;;;;;;16.08;69.99;101543.61;89504;1260;81213;-59
2022/08/09 20:48:31;;;;;;;15.70;9.40;;;;;;;16.07;69.99;101545.11;89501;1260;96438;-58
2022/08/09 20:50:48;;;;;;;13.40;8.70;;;;;;;16.05;69.96;101550.71;89517;1260;88595;-59
2022/08/09 20:53:02;;;;;;;11.70;8.20;;;;;;;16.01;70.14;101546.61;89486;1260;94271;-57
2022/08/09 20:55:16;;;;;;;15.60;8.50;;;;;;;15.95;70.10;101543.08;89488;1260;79485;-57
2022/08/09 20:57:30;;;;;;;12.40;9.00;;;;;;;15.90;70.25;101545.77;89505;1260;81949;-57
2022/08/09 20:59:42;;;;;;;14.50;8.80;;;;;;;15.85;70.38;101548.02;89497;1260;97613;-58
2022/08/09 21:02:02;;;;;;;13.10;8.50;;;;;;;15.81;70.47;101549.48;89482;1260;87616;-58
2022/08/09 21:04:15;;;;;;;16.20;8.00;;;;;;;15.77;70.55;101551.45;89492;1260;95326;-59
2022/08/09 21:06:30;;;;;;;15.40;7.10;;;;;;;15.68;70.79;101552.25;89537;1260;80485;-59
2022/08/09 21:08:40;;;;;;;12.10;7.70;;;;;;;15.65;70.88;101553.23;89535;1260;81852;-58
2022/08/09 21:10:49;;;;;;;14.10;7.40;;;;;;;15.63;70.90;101550.83;89507;1260;98239;-60
2022/08/09 21:12:59;;;;;;;10.60;6.90;;;;;;;15.62;71.01;101552.28;89544;1260;88661;-59
2022/08/09 21:15:14;;;;;;;12.90;7.80;;;;;;;15.60;71.19;101555.05;89513;1260;94659;-60
2022/08/09 21:17:26;;;;;;;10.80;7.50;;;;;;;15.60;71.14;101555.38;89507;1260;79551;-59
2022/08/09 21:19:40;;;;;;;;;;;;;;;15.59;71.28;101553.42;89518;1260;83088;-59
2022/08/09 21:22:00;;;;;;;12.10;7.70;;;;;;;15.53;71.28;101551.05;89450;1260;98314;-58
2022/08/09 21:24:12;;;;;;;10.40;7.20;;;;;;;15.46;71.49;101548.20;89496;1260;88391;-57
2022/08/09 21:26:21;;;;;;;11.00;6.90;;;;;;;15.39;71.47;101549.19;89488;1260;93049;-57
2022/08/09 21:28:32;;;;;;;9.70;6.90;;;;;;;15.32;71.60;101550.20;89504;1260;82212;-59
2022/08/09 21:30:43;;;;;;;9.70;6.70;;;;;;;15.30;71.75;101551.39;89483;1260;82052;-59
2022/08/09 21:32:54;;;;;;;10.10;6.80;;;;;;;15.28;71.87;101551.84;89502;1260;97474;-59
2022/08/09 21:35:09;;;;;;;11.10;7.00;;;;;;;15.25;71.91;101552.09;89455;1260;87674;-59
2022/08/09 21:37:22;;;;;;;10.00;7.20;;;;;;;15.22;72.10;101553.85;89520;1260;95117;-59
2022/08/09 21:39:34;;;;;;;14.70;8.10;;;;;;;15.20;72.13;101553.46;89494;1260;80422;-59
2022/08/09 21:41:53;;;;;;;9.50;7.20;;;;;;;15.15;72.14;101555.70;89501;1260;83814;-59
2022/08/09 21:44:05;;;;;;;10.50;7.20;;;;;;;15.09;72.18;101555.36;89505;1260;98055;-59
2022/08/09 21:46:15;;;;;;;10.90;7.00;;;;;;;15.04;72.22;101558.18;89488;1260;87314;-60
2022/08/09 21:48:24;;;;;;;10.00;6.90;;;;;;;15.00;72.31;101558.14;89505;1260;93714;-60
2022/08/09 21:50:33;;;;;;;9.80;6.50;;;;;;;14.97;72.38;101555.05;89483;1260;80938;-60
2022/08/09 21:52:46;;;;;;;13.20;7.50;;;;;;;14.94;72.56;101553.59;89528;1260;81777;-60
2022/08/09 21:54:57;;;;;;;10.30;6.50;;;;;;;14.93;72.63;101554.79;89386;1260;98020;-59
2022/08/09 21:57:07;;;;;;;10.00;7.30;;;;;;;14.95;72.72;101551.09;89476;1260;88225;-59
2022/08/09 21:59:17;;;;;;;10.60;7.10;;;;;;;14.93;72.71;101553.40;89500;1260;94109;-61
2022/08/09 22:01:27;;;;;;;13.30;8.20;;;;;;;14.91;72.75;101549.23;89385;1260;79940;-59
2022/08/09 22:03:38;;;;;;;9.40;7.70;;;;;;;14.88;72.80;101551.34;89497;1260;80602;-59
2022/08/09 22:05:51;;;;;;;11.90;7.20;;;;;;;14.85;72.81;101552.08;89482;1260;97632;-60
2022/08/09 22:08:04;;;;;;;9.70;7.00;;;;;;;14.80;72.90;101555.70;89504;1260;86576;-59
2022/08/09 22:10:26;;;;;;;8.90;6.60;;;;;;;14.77;72.91;101551.92;89478;1260;94612;-59
2022/08/09 22:12:36;;;;;;;9.60;6.90;;;;;;;14.74;73.05;101551.35;89503;1260;82153;-59
2022/08/09 22:14:48;;;;;;;11.70;6.90;;;;;;;14.72;73.10;101550.11;89482;1260;81810;-59
2022/08/09 22:17:04;;;;;;;11.70;6.90;;;;;;;14.68;73.17;101548.10;89460;1260;96586;-59
2022/08/09 22:19:18;;;;;;;9.60;6.40;;;;;;;14.66;73.11;101549.41;89496;1260;87134;-59
2022/08/09 22:21:32;;;;;;;10.40;6.70;;;;;;;14.64;73.24;101548.19;89493;1260;95084;-59
2022/08/09 22:23:42;;;;;;;8.60;6.30;;;;;;;14.61;73.28;101547.48;89502;1260;79011;-58
2022/08/09 22:25:51;;;;;;;11.30;7.10;;;;;;;14.58;73.34;101545.39;89498;1260;81583;-59
2022/08/09 22:28:02;;;;;;;8.40;6.50;;;;;;;14.53;73.33;101546.11;89503;1260;98827;-56
2022/08/09 22:32:49;;;;;;;7.10;5.50;;;;;;;14.42;73.57;101542.88;89577;1260;94808;-58
2022/08/09 22:35:02;;;;;;;11.30;6.00;;;;;;;14.38;73.62;101543.04;89536;1260;79855;-57
2022/08/09 22:37:18;;;;;;;7.90;5.50;;;;;;;14.37;73.65;101542.05;89519;1260;82967;-60
2022/08/09 22:39:30;;;;;;;7.70;5.70;;;;;;;14.34;73.84;101539.80;89500;1254;98606;-59
2022/08/09 22:41:44;;;;;;;8.60;5.80;;;;;;;14.33;73.83;101538.66;89527;1259;87889;-59
2022/08/09 22:43:54;;;;;;;9.90;6.20;;;;;;;14.33;73.85;101534.77;89501;1259;92995;-59
2022/08/09 22:46:08;;;;;;;6.90;6.10;;;;;;;14.33;73.89;101538.29;89488;1260;79683;-60
2022/08/09 22:48:17;;;;;;;7.90;5.60;;;;;;;14.31;73.85;101539.45;89519;1260;82648;-59
2022/08/09 22:50:27;;;;;;;7.80;5.50;;;;;;;14.28;73.85;101539.88;89513;1260;98154;-58
2022/08/09 22:52:36;;;;;;;8.20;5.20;;;;;;;14.23;73.80;101538.56;89512;1260;88282;-59
2022/08/09 22:54:46;;;;;;;6.50;5.30;;;;;;;14.22;73.92;101542.19;89524;1260;94804;-59
2022/08/09 22:56:58;;;;;;;6.70;4.80;;;;;;;14.20;74.08;101537.18;89554;1260;81270;-59
2022/08/09 22:59:14;;;;;;;8.20;5.20;;;;;;;14.19;74.08;101538.95;89508;1260;81619;-58
2022/08/09 23:01:24;;;;;;;11.10;5.70;;;;;;;14.17;74.20;101538.76;89484;1260;96742;-56
2022/08/09 23:03:37;;;;;;;9.20;5.50;;;;;;;14.18;74.24;101541.16;89523;1260;88274;-57
2022/08/09 23:05:50;;;;;;;8.20;5.70;;;;;;;14.16;74.31;101539.77;89506;1260;94203;-58
2022/08/09 23:10:33;;;;;;;7.30;5.40;;;;;;;14.05;74.54;101535.14;89517;1260;82689;-59
2022/08/09 23:12:46;;;;;;;10.40;5.60;;;;;;;13.99;74.64;101536.08;89537;1259;98524;-58
2022/08/09 23:14:56;;;;;;;9.00;5.70;;;;;;;13.98;74.56;101540.61;89548;1260;87837;-60
2022/08/09 23:17:05;;;;;;;7.20;5.10;;;;;;;13.94;74.63;101536.33;89526;1260;92501;-59
2022/08/09 23:19:14;;;;;;;7.90;5.10;;;;;;;13.92;74.65;101539.27;89348;1262;81333;-59
2022/08/09 23:21:25;;;;;;;8.40;5.50;;;;;;;13.92;74.76;101537.67;89522;1260;82631;-59
2022/08/09 23:23:37;;;;;;;6.30;5.10;;;;;;;13.92;74.93;101541.73;89352;1262;96557;-58
2022/08/09 23:25:46;;;;;;;7.10;5.60;;;;;;;13.90;74.86;101539.42;89551;1260;87978;-60
2022/08/09 23:27:55;;;;;;;9.10;5.50;;;;;;;13.87;74.91;101541.52;89508;1260;93622;-59
2022/08/09 23:30:07;;;;;;;6.60;5.30;;;;;;;13.83;75.03;101539.66;89547;1260;79247;-58
2022/08/09 23:32:18;;;;;;;8.00;5.60;;;;;;;13.79;74.99;101539.79;89511;1260;82442;-59
2022/08/09 23:34:33;;;;;;;7.20;5.50;;;;;;;13.72;75.07;101540.80;89506;1260;97948;-58
2022/08/09 23:36:42;;;;;;;8.60;5.70;;;;;;;13.70;75.06;101540.95;89522;1260;87525;-58
2022/08/09 23:38:51;;;;;;;7.70;5.00;;;;;;;13.67;75.08;101537.52;89503;1260;93726;-58
2022/08/09 23:41:02;;;;;;;7.30;5.60;;;;;;;13.64;75.25;101538.35;89501;1260;82181;-57
2022/08/09 23:43:15;;;;;;;7.90;4.60;;;;;;;13.62;75.29;101543.70;89522;1260;79695;-57
2022/08/09 23:45:27;;;;;;;8.60;5.30;;;;;;;13.61;75.43;101540.34;89505;1253;98321;-57
2022/08/09 23:47:43;;;;;;;8.20;6.00;;;;;;;13.64;75.45;101540.59;89491;1259;88373;-58
2022/08/09 23:49:52;;;;;;;7.50;5.70;;;;;;;13.64;75.35;101540.40;89520;1259;94674;-57
2022/08/09 23:52:04;;;;;;;7.10;5.60;;;;;;;13.61;75.44;101536.84;89483;1260;79906;-60
2022/08/09 23:54:13;;;;;;;10.20;6.00;;;;;;;13.60;75.38;101537.02;89491;1260;80789;-58
2022/08/09 23:56:24;;;;;;;11.20;6.10;;;;;;;13.55;75.46;101538.61;89326;1262;99208;-59
2022/08/09 23:58:35;;;;;;;10.10;5.90;;;;;;;13.51;75.56;101542.04;89493;1260;87740;-59
